Time;durP1;ratioP1;P1;durP2;ratioP2;P2;SDS_P1;SDS_P2;PMS_P1;PMS_P2;Temp;Humidity;BMP_temperature;BMP_pressure;BME280_temperature;BME280_humidity;BME280_pressure;Samples;Min_cycle;Max_cycle;Signal;HPM_P1;HPM_P2
2023/10/15 00:00:00;;;;;;;4.77;3.23;;;;;;;12.72;55.62;93272.38;528796;27;1027;-46
2023/10/15 00:00:18;;;;;;;6.53;3.00;;;;;;;12.72;55.81;93272.38;528437;28;868;-45
2023/10/15 00:00:34;;;;;;;6.55;2.95;;;;;;;12.73;55.92;93267.56;529363;27;908;-46
2023/10/15 00:00:50;;;;;;;4.53;3.10;;;;;;;12.70;55.76;93266.66;529464;27;980;-45
2023/10/15 00:01:05;;;;;;;3.88;3.35;;;;;;;12.74;55.83;93266.25;528349;28;912;-44
2023/10/15 00:01:21;;;;;;;4.40;3.30;;;;;;;12.74;55.75;93278.09;530584;27;1134;-45
2023/10/15 00:01:36;;;;;;;5.07;3.20;;;;;;;12.72;55.86;93261.28;530501;27;1120;-45
2023/10/15 00:01:52;;;;;;;4.20;3.10;;;;;;;12.75;55.63;93265.72;529718;27;899;-46
2023/10/15 00:02:07;;;;;;;3.60;3.17;;;;;;;12.76;55.61;93269.19;528499;28;865;-45
2023/10/15 00:02:23;;;;;;;3.60;3.30;;;;;;;12.74;55.77;93261.47;528606;27;1738;-46
2023/10/15 00:02:39;;;;;;;4.47;3.20;;;;;;;12.76;56.03;93271.97;529837;27;853;-46
2023/10/15 00:02:55;;;;;;;5.32;3.08;;;;;;;12.75;55.97;93262.19;530091;27;1017;-45
2023/10/15 00:03:11;;;;;;;6.77;3.03;;;;;;;12.76;55.92;93263.66;530652;27;812;-46
2023/10/15 00:03:26;;;;;;;8.85;3.10;;;;;;;12.76;55.82;93263.66;529928;27;869;-45
2023/10/15 00:03:41;;;;;;;6.23;3.37;;;;;;;12.77;55.96;93262.38;530642;27;820;-46
2023/10/15 00:03:57;;;;;;;4.20;3.45;;;;;;;12.76;55.97;93260.88;530606;27;849;-47
2023/10/15 00:04:13;;;;;;;4.60;3.37;;;;;;;12.76;55.67;93267.16;530599;27;829;-46
2023/10/15 00:04:28;;;;;;;4.45;3.08;;;;;;;12.77;56.00;93265.13;530358;27;1044;-45
2023/10/15 00:04:43;;;;;;;3.60;2.67;;;;;;;12.76;56.05;93260.88;528518;28;852;-47
2023/10/15 00:05:01;;;;;;;5.60;2.83;;;;;;;12.77;55.86;93262.38;528394;28;896;-46
2023/10/15 00:05:18;;;;;;;7.72;3.10;;;;;;;12.78;55.81;93261.06;528465;28;903;-45
2023/10/15 00:05:35;;;;;;;4.45;3.13;;;;;;;12.77;55.73;93265.13;529505;27;782;-45
2023/10/15 00:05:50;;;;;;;3.95;2.90;;;;;;;12.77;56.02;93265.13;530636;27;875;-47
2023/10/15 00:06:06;;;;;;;3.03;2.70;;;;;;;12.77;56.01;93257.56;530363;27;1093;-46
2023/10/15 00:06:21;;;;;;;3.88;2.90;;;;;;;12.78;55.68;93259.03;529895;27;1687;-45
2023/10/15 00:06:37;;;;;;;4.20;3.20;;;;;;;12.76;55.75;93266.44;529477;27;813;-46
2023/10/15 00:06:52;;;;;;;4.43;3.40;;;;;;;12.74;55.75;93247.59;528335;28;885;-46
2023/10/15 00:07:07;;;;;;;4.83;3.10;;;;;;;12.74;55.71;93257.94;528395;28;1085;-45
2023/10/15 00:07:23;;;;;;;5.73;3.00;;;;;;;12.75;55.81;93253.88;528525;28;898;-45
2023/10/15 00:07:39;;;;;;;4.88;2.85;;;;;;;12.75;55.74;93264.97;530089;27;955;-47
2023/10/15 00:07:55;;;;;;;3.38;2.78;;;;;;;12.74;55.83;93260.72;530514;27;872;-45
2023/10/15 00:08:10;;;;;;;3.92;2.83;;;;;;;12.74;55.80;93258.69;530638;27;931;-46
2023/10/15 00:08:26;;;;;;;4.27;2.90;;;;;;;12.74;55.69;93263.50;530489;27;789;-45
2023/10/15 00:08:41;;;;;;;3.95;3.10;;;;;;;12.74;55.97;93252.41;530274;27;848;-45
2023/10/15 00:08:59;;;;;;;5.10;3.17;;;;;;;12.73;55.98;93256.50;530467;27;1109;-46
2023/10/15 00:09:15;;;;;;;6.00;2.95;;;;;;;12.72;55.89;93258.53;530490;27;1068;-45
2023/10/15 00:09:30;;;;;;;5.13;2.57;;;;;;;12.72;56.00;93249.47;530084;27;901;-46
2023/10/15 00:09:46;;;;;;;4.20;2.88;;;;;;;12.70;56.07;93252.06;530560;27;844;-45
2023/10/15 00:10:01;;;;;;;3.63;3.00;;;;;;;12.68;56.01;93249.88;530521;27;785;-45
2023/10/15 00:10:19;;;;;;;4.82;2.97;;;;;;;12.69;56.09;93259.66;530550;27;1638;-45
2023/10/15 00:10:34;;;;;;;4.63;2.97;;;;;;;12.69;56.16;93256.88;529953;27;1117;-45
2023/10/15 00:10:50;;;;;;;3.20;2.90;;;;;;;12.70;56.27;93254.84;529658;27;1710;-45
2023/10/15 00:11:13;;;;;;;3.67;2.95;;;;;;;12.69;55.99;93256.16;530501;27;970;-45
2023/10/15 00:11:28;;;;;;;7.07;3.40;;;;;;;12.69;55.95;93256.16;528782;28;814;-45
2023/10/15 00:11:44;;;;;;;6.53;3.13;;;;;;;12.68;56.00;93255.44;528367;28;1969;-46
2023/10/15 00:12:00;;;;;;;4.77;3.17;;;;;;;12.68;56.14;93249.88;530418;27;1053;-45
2023/10/15 00:12:15;;;;;;;5.18;3.40;;;;;;;12.68;56.10;93254.69;530598;27;852;-45
2023/10/15 00:12:30;;;;;;;4.40;3.30;;;;;;;12.69;56.00;93256.16;530222;27;961;-44
2023/10/15 00:12:48;;;;;;;3.83;3.00;;;;;;;12.69;56.07;93251.34;530388;27;2448;-45
2023/10/15 00:13:04;;;;;;;5.88;3.15;;;;;;;12.69;56.05;93259.66;528464;28;981;-44
2023/10/15 00:13:19;;;;;;;7.13;3.27;;;;;;;12.69;56.02;93256.88;528523;28;842;-44
2023/10/15 00:13:34;;;;;;;6.72;3.30;;;;;;;12.67;56.16;93258.75;528851;27;1758;-45
2023/10/15 00:13:50;;;;;;;5.03;3.07;;;;;;;12.67;56.11;93250.44;530428;28;995;-46
2023/10/15 00:14:05;;;;;;;4.07;2.93;;;;;;;12.66;55.88;93255.25;528686;27;988;-45
2023/10/15 00:14:21;;;;;;;4.97;3.00;;;;;;;12.65;56.00;93253.03;530561;27;876;-44
2023/10/15 00:14:37;;;;;;;4.00;2.83;;;;;;;12.64;55.97;93259.91;530398;27;832;-44
2023/10/15 00:14:52;;;;;;;4.25;3.03;;;;;;;12.63;56.18;93253.63;530563;27;832;-45
2023/10/15 00:15:28;;;;;;;4.82;3.33;;;;;;;12.63;56.09;93253.63;530351;27;1097;-45
2023/10/15 00:15:44;;;;;;;7.20;3.05;;;;;;;12.61;56.00;93253.44;528460;28;1035;-44
2023/10/15 00:15:59;;;;;;;7.20;3.03;;;;;;;12.59;56.00;93250.50;530524;27;877;-45
2023/10/15 00:16:22;;;;;;;8.98;3.15;;;;;;;12.59;56.12;93255.31;530513;27;793;-45
2023/10/15 00:16:38;;;;;;;6.00;3.35;;;;;;;12.59;55.92;93253.28;530027;27;1180;-46
2023/10/15 00:16:53;;;;;;;4.07;3.10;;;;;;;12.58;55.86;93253.84;530492;27;956;-44
2023/10/15 00:17:09;;;;;;;3.87;3.20;;;;;;;12.59;55.94;93260.84;529720;27;1730;-45
2023/10/15 00:17:27;;;;;;;3.78;3.15;;;;;;;12.59;55.94;93258.81;529474;27;845;-45
2023/10/15 00:17:43;;;;;;;7.22;3.08;;;;;;;12.50;55.87;93239.31;528804;27;1025;-45
2023/10/15 00:18:03;;;;;;;13.45;3.38;;;;;;;12.60;56.09;93251.25;528898;27;1243;-45
2023/10/15 00:18:19;;;;;;;7.70;3.00;;;;;;;12.60;55.73;93254.03;528442;28;974;-45
2023/10/15 00:18:34;;;;;;;10.73;3.33;;;;;;;12.52;55.86;93242.25;529498;27;786;-45
2023/10/15 00:18:50;;;;;;;7.43;3.13;;;;;;;12.59;55.84;93252.53;530603;27;794;-45
2023/10/15 00:19:11;;;;;;;4.75;3.00;;;;;;;12.60;55.99;93259.56;530456;27;1087;-45
2023/10/15 00:19:26;;;;;;;6.88;3.08;;;;;;;12.60;56.06;93262.34;528654;27;817;-44
2023/10/15 00:19:42;;;;;;;4.73;2.83;;;;;;;12.60;55.83;93259.56;530540;27;958;-44
2023/10/15 00:19:57;;;;;;;7.93;3.28;;;;;;;12.57;56.04;93250.34;530435;27;820;-46
2023/10/15 00:20:16;;;;;;;11.63;3.27;;;;;;;12.58;56.08;93256.63;530591;27;864;-45
2023/10/15 00:20:31;;;;;;;9.50;2.90;;;;;;;12.47;55.91;93237.69;530483;27;922;-44
2023/10/15 00:20:47;;;;;;;3.67;2.60;;;;;;;12.56;55.84;93251.63;530493;27;1115;-46
2023/10/15 00:21:12;;;;;;;3.80;3.03;;;;;;;12.56;55.92;93248.16;530372;27;1064;-45
2023/10/15 00:21:27;;;;;;;3.80;3.03;;;;;;;12.55;55.95;93252.22;529798;27;1765;-45
2023/10/15 00:21:43;;;;;;;5.07;3.20;;;;;;;12.54;56.17;93253.53;529260;27;864;-45
2023/10/15 00:21:58;;;;;;;5.73;3.20;;;;;;;12.45;56.10;93245.84;528323;28;910;-45
2023/10/15 00:22:13;;;;;;;4.68;2.75;;;;;;;12.54;56.11;93251.47;528426;28;1516;-45
2023/10/15 00:22:29;;;;;;;5.33;3.00;;;;;;;12.49;56.08;93252.44;530360;27;895;-45
2023/10/15 00:22:45;;;;;;;5.68;3.30;;;;;;;12.53;56.28;93252.03;530581;27;880;-46
2023/10/15 00:23:04;;;;;;;4.35;3.08;;;;;;;12.52;56.28;93251.31;530433;27;885;-45
2023/10/15 00:23:20;;;;;;;2.97;2.67;;;;;;;12.53;56.00;93252.03;530359;27;1617;-45
2023/10/15 00:23:36;;;;;;;3.08;2.78;;;;;;;12.51;55.98;93249.09;529279;27;880;-45
2023/10/15 00:23:52;;;;;;;4.55;3.20;;;;;;;12.49;55.98;93249.69;528424;28;1086;-44
2023/10/15 00:24:10;;;;;;;4.10;3.08;;;;;;;12.50;56.15;93251.13;529898;27;1076;-44
2023/10/15 00:24:25;;;;;;;2.95;2.45;;;;;;;12.49;55.89;93248.94;530166;27;1220;-45
2023/10/15 00:24:41;;;;;;;3.00;2.53;;;;;;;12.49;55.88;93258.00;529150;27;1628;-45
2023/10/15 00:24:56;;;;;;;3.10;2.80;;;;;;;12.48;55.94;93253.75;529418;27;852;-45
2023/10/15 00:25:13;;;;;;;3.97;3.67;;;;;;;12.47;56.00;93249.50;529048;27;816;-47
2023/10/15 00:25:34;;;;;;;4.40;3.67;;;;;;;12.47;56.33;93255.06;530317;27;981;-45
2023/10/15 00:25:49;;;;;;;3.78;2.90;;;;;;;12.47;56.15;93252.28;528291;28;854;-45
2023/10/15 00:26:05;;;;;;;3.50;3.20;;;;;;;12.47;56.08;93248.78;528180;28;1278;-44
2023/10/15 00:26:21;;;;;;;3.33;3.00;;;;;;;12.47;56.29;93246.00;528473;28;845;-45
2023/10/15 00:26:38;;;;;;;3.67;2.80;;;;;;;12.46;56.51;93252.81;529878;27;1064;-46
2023/10/15 00:26:54;;;;;;;12.02;3.50;;;;;;;12.44;56.46;93253.41;528880;27;917;-46
2023/10/15 00:27:10;;;;;;;13.10;3.38;;;;;;;12.44;56.22;93250.63;529952;27;1105;-45
2023/10/15 00:27:27;;;;;;;5.87;2.70;;;;;;;12.42;56.31;93244.19;529332;27;1758;-46
2023/10/15 00:27:43;;;;;;;6.15;3.17;;;;;;;12.30;56.55;93232.13;528343;28;971;-46
2023/10/15 00:27:59;;;;;;;4.40;3.17;;;;;;;12.37;56.53;93248.66;530004;27;995;-45
2023/10/15 00:28:15;;;;;;;2.97;2.63;;;;;;;12.35;56.49;93248.47;530520;27;895;-45
2023/10/15 00:28:31;;;;;;;3.45;2.60;;;;;;;12.34;56.63;93252.56;529050;27;997;-46
2023/10/15 00:28:46;;;;;;;5.93;3.03;;;;;;;12.36;56.64;93252.00;529011;27;985;-47
2023/10/15 00:29:07;;;;;;;9.73;3.43;;;;;;;12.36;56.97;93257.53;530574;27;828;-46
2023/10/15 00:29:24;;;;;;;13.55;4.18;;;;;;;12.37;56.82;93247.91;530585;27;878;-47
2023/10/15 00:29:39;;;;;;;9.77;3.38;;;;;;;12.36;56.95;93249.97;530291;27;1733;-46
2023/10/15 00:29:55;;;;;;;7.70;2.93;;;;;;;12.37;56.78;93251.41;530541;27;916;-46
2023/10/15 00:30:14;;;;;;;3.23;2.80;;;;;;;12.38;56.71;93252.16;530398;27;1093;-46
2023/10/15 00:30:32;;;;;;;5.10;2.60;;;;;;;12.28;56.77;93232.66;530016;27;1012;-46
2023/10/15 00:30:48;;;;;;;4.72;2.60;;;;;;;12.38;56.88;93258.44;530535;27;836;-46
2023/10/15 00:31:09;;;;;;;6.90;3.00;;;;;;;12.38;56.54;93252.16;530576;27;825;-45
2023/10/15 00:31:24;;;;;;;6.63;2.90;;;;;;;12.38;56.85;93249.41;530447;27;1706;-46
2023/10/15 00:31:41;;;;;;;6.00;3.25;;;;;;;12.35;56.56;93242.22;529622;27;1973;-46
2023/10/15 00:31:57;;;;;;;8.20;3.30;;;;;;;12.36;56.68;93247.19;528460;27;1009;-45
2023/10/15 00:32:13;;;;;;;3.95;2.88;;;;;;;12.36;56.64;93241.66;530502;27;860;-47
2023/10/15 00:32:29;;;;;;;3.80;2.80;;;;;;;12.35;56.68;93247.75;530496;27;785;-46
2023/10/15 00:32:46;;;;;;;3.67;2.53;;;;;;;12.38;56.62;93247.38;528342;28;913;-45
2023/10/15 00:33:06;;;;;;;4.43;2.85;;;;;;;12.36;56.37;93243.69;528765;27;1149;-46
2023/10/15 00:33:22;;;;;;;5.05;2.88;;;;;;;12.32;56.23;93241.31;530468;27;920;-46
2023/10/15 00:33:42;;;;;;;5.67;2.90;;;;;;;12.38;56.33;93246.63;530259;27;1044;-47
2023/10/15 00:33:57;;;;;;;4.60;2.70;;;;;;;12.39;56.11;93248.09;530503;27;924;-46
2023/10/15 00:34:12;;;;;;;4.70;2.80;;;;;;;12.34;56.09;93241.50;529724;27;1714;-46
2023/10/15 00:34:30;;;;;;;3.70;2.72;;;;;;;12.37;56.13;93245.88;529719;27;801;-45
2023/10/15 00:34:49;;;;;;;3.58;2.63;;;;;;;12.37;56.27;93248.66;529645;27;903;-45
2023/10/15 00:35:04;;;;;;;4.22;2.75;;;;;;;12.37;56.14;93239.59;530409;27;1324;-45
2023/10/15 00:35:20;;;;;;;4.17;2.90;;;;;;;12.31;56.51;93242.63;530371;27;839;-47
2023/10/15 00:35:35;;;;;;;3.67;2.80;;;;;;;12.36;56.35;93243.69;530015;27;944;-46
2023/10/15 00:35:54;;;;;;;6.27;3.10;;;;;;;12.37;56.45;93247.91;530566;27;818;-45
2023/10/15 00:36:13;;;;;;;7.32;3.40;;;;;;;12.37;56.42;93243.13;528876;27;927;-45
2023/10/15 00:36:29;;;;;;;4.88;2.78;;;;;;;12.38;56.30;93241.09;528713;27;1076;-46
2023/10/15 00:36:44;;;;;;;4.28;2.83;;;;;;;12.39;56.21;93242.56;530540;27;805;-45
2023/10/15 00:37:01;;;;;;;5.50;3.07;;;;;;;12.39;56.39;93246.06;530366;27;1276;-46
2023/10/15 00:37:16;;;;;;;6.00;2.63;;;;;;;12.37;56.18;93237.56;530545;27;880;-46
2023/10/15 00:37:34;;;;;;;5.10;2.43;;;;;;;12.38;56.50;93241.09;530067;27;931;-46
2023/10/15 00:37:55;;;;;;;4.05;2.60;;;;;;;12.38;56.45;93244.59;528159;28;2210;-45
2023/10/15 00:38:16;;;;;;;3.28;2.47;;;;;;;12.39;56.36;93246.06;526207;28;833;-46
2023/10/15 00:38:32;;;;;;;3.55;2.78;;;;;;;12.39;56.44;93242.56;525635;28;1045;-46
2023/10/15 00:38:47;;;;;;;4.45;3.03;;;;;;;12.38;56.35;93241.81;525381;28;1724;-46
2023/10/15 00:39:09;;;;;;;4.90;2.97;;;;;;;12.35;56.12;93234.63;525636;28;1173;-46
2023/10/15 00:39:25;;;;;;;4.50;2.95;;;;;;;12.36;56.45;93244.44;526004;28;913;-45
2023/10/15 00:39:41;;;;;;;4.33;2.90;;;;;;;12.37;56.19;93242.38;526050;28;871;-46
2023/10/15 00:39:59;;;;;;;5.32;2.97;;;;;;;12.36;56.17;93236.13;528729;27;896;-45
2023/10/15 00:40:17;;;;;;;6.88;2.90;;;;;;;12.34;56.04;93233.19;530427;27;1052;-46
2023/10/15 00:40:37;;;;;;;4.00;2.67;;;;;;;12.36;56.34;93238.88;529411;27;873;-45
2023/10/15 00:41:01;;;;;;;3.87;2.43;;;;;;;12.38;56.33;93241.09;528384;28;916;-46
2023/10/15 00:41:16;;;;;;;3.65;2.80;;;;;;;12.38;56.32;93239.06;528314;28;862;-46
2023/10/15 00:41:31;;;;;;;3.55;2.83;;;;;;;12.37;56.46;93243.13;528780;27;1703;-46
2023/10/15 00:41:50;;;;;;;3.23;2.70;;;;;;;12.35;56.50;93242.22;529368;27;997;-46
2023/10/15 00:42:05;;;;;;;3.35;2.35;;;;;;;12.33;56.45;93234.47;530412;27;1081;-46
2023/10/15 00:42:22;;;;;;;2.53;2.07;;;;;;;12.34;56.45;93235.22;530504;27;860;-46
2023/10/15 00:42:39;;;;;;;3.45;2.67;;;;;;;12.34;56.39;93237.97;530246;27;932;-46
2023/10/15 00:42:57;;;;;;;4.20;3.05;;;;;;;12.34;56.58;93233.19;530426;27;939;-46
2023/10/15 00:43:17;;;;;;;4.97;3.08;;;;;;;12.36;56.46;93235.38;530456;27;850;-46
2023/10/15 00:43:32;;;;;;;4.85;3.35;;;;;;;12.36;56.60;93238.88;529147;27;1081;-46
2023/10/15 00:43:52;;;;;;;3.95;2.95;;;;;;;12.26;56.61;93226.94;530550;27;817;-45
2023/10/15 00:44:09;;;;;;;3.08;2.63;;;;;;;12.34;56.52;93233.19;529780;27;1780;-45
2023/10/15 00:44:26;;;;;;;3.50;2.85;;;;;;;12.36;56.30;93244.44;529459;27;836;-46
2023/10/15 00:44:42;;;;;;;5.35;3.17;;;;;;;12.32;56.57;93232.28;528841;27;904;-45
2023/10/15 00:44:57;;;;;;;4.80;3.47;;;;;;;12.32;56.60;93244.09;529100;27;1020;-46
2023/10/15 00:45:20;;;;;;;3.47;3.13;;;;;;;12.16;56.71;93218.56;529225;27;1120;-46
2023/10/15 00:45:39;;;;;;;5.72;3.30;;;;;;;12.19;56.72;93222.94;529561;27;935;-45
2023/10/15 00:45:55;;;;;;;4.50;3.13;;;;;;;12.27;56.62;93233.22;530415;27;989;-45
2023/10/15 00:46:13;;;;;;;3.33;3.03;;;;;;;12.30;56.75;93235.59;530220;27;778;-46
2023/10/15 00:46:32;;;;;;;3.55;3.25;;;;;;;12.31;56.30;93237.06;526445;28;905;-46
2023/10/15 00:46:54;;;;;;;5.22;3.65;;;;;;;12.33;56.36;93234.47;527516;28;1823;-45
2023/10/15 00:47:15;;;;;;;5.63;3.40;;;;;;;12.34;56.52;93238.72;527985;28;879;-48
2023/10/15 00:47:34;;;;;;;5.07;3.13;;;;;;;12.35;55.94;93236.66;524583;28;893;-45
2023/10/15 00:48:07;;;;;;;4.00;2.78;;;;;;;12.29;56.16;93234.13;525427;28;888;-46
2023/10/15 00:48:24;;;;;;;3.53;2.78;;;;;;;12.36;56.46;93238.88;520433;28;882;-46
2023/10/15 00:48:40;;;;;;;3.83;2.92;;;;;;;12.38;56.35;93243.84;523062;28;1018;-45
2023/10/15 00:49:09;;;;;;;4.03;2.90;;;;;;;12.37;56.33;93245.13;523864;28;790;-46
2023/10/15 00:49:25;;;;;;;3.75;2.83;;;;;;;12.36;56.16;93240.91;525797;28;1743;-45
2023/10/15 00:49:41;;;;;;;4.17;3.20;;;;;;;12.26;56.01;93223.47;527494;28;1094;-45
2023/10/15 00:49:56;;;;;;;4.95;3.17;;;;;;;12.33;56.27;93236.50;525232;28;1022;-46
2023/10/15 00:50:14;;;;;;;4.07;2.90;;;;;;;12.32;56.47;93233.03;524084;28;860;-46
2023/10/15 00:50:35;;;;;;;4.15;2.85;;;;;;;12.30;56.14;93235.59;524439;28;1008;-45
2023/10/15 00:50:55;;;;;;;5.53;3.05;;;;;;;12.32;56.32;93233.03;527452;28;1023;-46
2023/10/15 00:51:11;;;;;;;4.00;2.85;;;;;;;12.33;56.32;93233.72;526466;28;1124;-46
2023/10/15 00:51:26;;;;;;;5.30;2.70;;;;;;;12.33;56.27;93233.72;524454;28;1018;-46
2023/10/15 00:51:44;;;;;;;5.97;2.73;;;;;;;12.31;56.03;93231.53;523904;28;1914;-46
2023/10/15 00:52:02;;;;;;;3.88;2.90;;;;;;;12.33;56.39;93242.78;526165;28;916;-47
2023/10/15 00:52:20;;;;;;;4.30;3.03;;;;;;;12.34;56.10;93235.22;526153;28;1118;-46
2023/10/15 00:52:42;;;;;;;3.38;2.95;;;;;;;12.25;56.23;93222.72;524266;28;1125;-45
2023/10/15 00:53:03;;;;;;;2.85;2.60;;;;;;;12.20;55.88;93212.63;523918;28;1205;-45
2023/10/15 00:53:27;;;;;;;4.47;2.72;;;;;;;12.33;56.22;93234.47;524804;28;964;-47
2023/10/15 00:53:54;;;;;;;3.88;2.70;;;;;;;12.31;56.05;93230.81;527562;28;1639;-46
2023/10/15 00:54:15;;;;;;;5.25;2.72;;;;;;;12.07;56.34;93199.78;527776;28;1077;-45
2023/10/15 00:54:33;;;;;;;3.42;2.88;;;;;;;12.28;55.93;93229.19;527375;28;904;-46
2023/10/15 00:54:50;;;;;;;3.85;2.83;;;;;;;12.03;56.14;93193.94;528128;28;1714;-46
2023/10/15 00:55:06;;;;;;;3.20;2.60;;;;;;;12.28;56.47;93229.88;528131;28;928;-46
2023/10/15 00:55:22;;;;;;;2.58;2.28;;;;;;;12.27;56.39;93228.44;528139;28;876;-48
2023/10/15 00:55:42;;;;;;;2.97;2.47;;;;;;;12.16;56.33;93217.81;528030;28;1058;-47
2023/10/15 00:56:05;;;;;;;3.78;2.83;;;;;;;12.25;56.49;93225.50;524844;28;817;-45
2023/10/15 00:56:23;;;;;;;3.58;2.80;;;;;;;12.25;56.22;93233.81;525160;28;1022;-46
2023/10/15 00:56:39;;;;;;;4.78;3.10;;;;;;;12.25;56.82;93233.06;523496;28;884;-46
2023/10/15 00:56:55;;;;;;;4.43;3.05;;;;;;;12.25;56.80;93235.84;524005;28;1003;-45
2023/10/15 00:57:41;;;;;;;3.30;2.80;;;;;;;12.23;56.57;93230.88;524288;28;1020;-45
2023/10/15 00:57:57;;;;;;;3.47;2.67;;;;;;;12.22;56.57;93223.13;524774;28;965;-45
2023/10/15 00:58:21;;;;;;;4.13;2.87;;;;;;;12.18;56.50;93226.28;523696;28;1701;-46
2023/10/15 00:58:54;;;;;;;4.93;3.10;;;;;;;12.08;56.95;93215.09;525251;28;1035;-45
2023/10/15 00:59:13;;;;;;;3.70;2.83;;;;;;;12.14;56.82;93231.47;523977;28;1759;-45
2023/10/15 00:59:47;;;;;;;6.50;3.00;;;;;;;12.13;56.73;93225.22;527946;28;999;-47
2023/10/15 01:00:07;;;;;;;3.78;2.97;;;;;;;12.14;57.03;93232.22;528718;27;1100;-46
2023/10/15 01:01:00;;;;;;;4.55;2.83;;;;;;;12.12;56.64;93228.53;526292;28;1604;-46
2023/10/15 01:01:38;;;;;;;5.30;2.80;;;;;;;12.13;56.78;93230.75;525880;28;983;-46
2023/10/15 01:02:12;;;;;;;3.27;2.40;;;;;;;12.12;57.20;93232.06;524683;28;838;-45
2023/10/15 01:02:28;;;;;;;3.45;2.72;;;;;;;12.09;56.87;93226.91;526256;28;1004;-46
2023/10/15 01:02:44;;;;;;;3.17;2.83;;;;;;;12.08;56.75;93231.69;525942;28;1013;-46
2023/10/15 01:03:07;;;;;;;4.70;2.80;;;;;;;12.07;57.16;93230.22;526052;28;1386;-46
2023/10/15 01:03:30;;;;;;;2.88;2.22;;;;;;;12.06;57.28;93239.81;521955;28;1590;-45
2023/10/15 01:03:49;;;;;;;2.92;2.63;;;;;;;12.02;57.27;93224.91;521984;28;1654;-45
2023/10/15 01:04:09;;;;;;;3.25;2.95;;;;;;;11.97;57.25;93228.66;522919;28;889;-45
2023/10/15 01:04:26;;;;;;;3.67;2.67;;;;;;;11.97;57.30;93228.66;523152;28;952;-46
2023/10/15 01:04:41;;;;;;;3.85;2.60;;;;;;;11.97;57.51;93229.38;525353;28;1058;-45
2023/10/15 01:04:58;;;;;;;3.40;2.93;;;;;;;11.97;57.63;93229.38;526059;28;861;-47
2023/10/15 01:05:14;;;;;;;3.22;2.63;;;;;;;11.98;57.49;93227.34;527712;28;889;-46
2023/10/15 01:05:33;;;;;;;3.13;2.42;;;;;;;12.00;57.57;93221.97;528960;27;868;-47
2023/10/15 01:05:54;;;;;;;2.95;2.65;;;;;;;11.94;57.62;93216.66;528395;28;822;-46
2023/10/15 01:06:13;;;;;;;2.80;2.50;;;;;;;12.02;57.34;93228.41;529744;27;1114;-46
2023/10/15 01:06:46;;;;;;;3.13;2.70;;;;;;;11.75;57.57;93186.00;529631;27;1682;-45
2023/10/15 01:07:14;;;;;;;4.32;3.03;;;;;;;12.01;57.69;93234.53;529448;27;943;-45
2023/10/15 01:07:47;;;;;;;4.10;2.47;;;;;;;11.94;57.38;93230.50;527898;28;913;-45
2023/10/15 01:08:04;;;;;;;4.32;2.88;;;;;;;11.94;57.43;93227.00;525983;28;972;-46
2023/10/15 01:08:26;;;;;;;3.17;2.72;;;;;;;11.93;57.50;93223.50;526100;28;947;-46
2023/10/15 01:08:42;;;;;;;2.90;2.60;;;;;;;11.93;57.54;93231.78;526003;28;913;-45
2023/10/15 01:09:08;;;;;;;3.00;2.70;;;;;;;11.94;57.78;93229.75;526091;28;813;-46
2023/10/15 01:09:30;;;;;;;3.95;2.60;;;;;;;11.96;57.77;93233.44;529656;27;1081;-46
2023/10/15 01:09:45;;;;;;;4.00;2.85;;;;;;;11.98;57.45;93228.06;528207;28;876;-47
2023/10/15 01:10:01;;;;;;;5.10;3.13;;;;;;;11.75;57.32;93188.78;528314;28;893;-47
2023/10/15 01:10:29;;;;;;;3.92;2.70;;;;;;;11.91;57.56;93220.56;528268;28;904;-45
2023/10/15 01:10:44;;;;;;;4.30;2.65;;;;;;;11.92;57.53;93222.03;530104;27;897;-46
2023/10/15 01:11:19;;;;;;;2.97;2.50;;;;;;;11.94;57.64;93224.22;529495;27;1539;-45
2023/10/15 01:11:44;;;;;;;3.20;2.88;;;;;;;11.95;57.56;93218.13;528903;27;954;-46
2023/10/15 01:12:18;;;;;;;5.65;2.85;;;;;;;11.96;57.57;93219.59;528798;27;987;-45
2023/10/15 01:12:33;;;;;;;4.63;3.15;;;;;;;11.98;57.59;93228.06;528909;27;995;-45
2023/10/15 01:12:49;;;;;;;4.37;3.10;;;;;;;11.99;57.34;93220.53;530513;27;789;-46
2023/10/15 01:13:17;;;;;;;3.65;2.80;;;;;;;11.98;57.38;93219.03;530257;27;1659;-46
2023/10/15 01:13:32;;;;;;;2.97;2.60;;;;;;;11.95;57.36;93222.94;530020;27;897;-47
2023/10/15 01:13:48;;;;;;;3.27;2.77;;;;;;;11.92;57.16;93222.03;530451;27;810;-46
2023/10/15 01:14:03;;;;;;;4.70;2.80;;;;;;;11.89;57.34;93217.63;529125;27;1769;-45
2023/10/15 01:14:38;;;;;;;6.63;3.07;;;;;;;11.92;57.25;93226.81;530001;27;1060;-47
2023/10/15 01:14:53;;;;;;;4.20;3.13;;;;;;;11.89;57.31;93214.13;530369;27;888;-46
2023/10/15 01:15:08;;;;;;;5.10;3.15;;;;;;;11.84;56.76;93220.63;529623;27;809;-46
2023/10/15 01:15:26;;;;;;;4.70;3.07;;;;;;;11.81;56.85;93218.97;530367;27;1031;-46
2023/10/15 01:15:42;;;;;;;4.10;3.03;;;;;;;11.82;56.67;93229.47;528599;27;900;-45
2023/10/15 01:16:03;;;;;;;3.30;2.92;;;;;;;11.76;57.01;93214.41;528023;28;1053;-45
2023/10/15 01:16:19;;;;;;;5.80;3.58;;;;;;;11.86;56.78;93221.53;526153;28;817;-46
2023/10/15 01:16:36;;;;;;;5.67;3.93;;;;;;;11.86;56.49;93224.28;526170;28;1615;-45
2023/10/15 01:16:51;;;;;;;8.95;3.95;;;;;;;11.89;56.67;93223.16;524643;28;897;-45
2023/10/15 01:17:08;;;;;;;8.90;3.42;;;;;;;11.90;56.72;93221.88;526024;28;885;-47
2023/10/15 01:17:26;;;;;;;5.73;3.13;;;;;;;11.80;56.30;93204.38;525903;28;1128;-46
2023/10/15 01:17:41;;;;;;;4.35;2.85;;;;;;;11.92;56.38;93227.56;524986;28;976;-46
2023/10/15 01:18:06;;;;;;;4.80;3.07;;;;;;;11.70;56.49;93189.72;525928;28;904;-45
2023/10/15 01:18:22;;;;;;;7.65;3.42;;;;;;;11.96;56.38;93216.84;525967;28;1534;-46
2023/10/15 01:18:37;;;;;;;9.20;3.17;;;;;;;11.96;56.19;93225.13;526564;28;919;-46
2023/10/15 01:18:58;;;;;;;7.82;3.17;;;;;;;11.96;56.21;93218.88;528231;28;935;-46
2023/10/15 01:19:18;;;;;;;5.78;2.97;;;;;;;11.99;56.25;93220.53;528287;28;997;-45
2023/10/15 01:19:34;;;;;;;7.93;3.55;;;;;;;12.00;56.27;93222.72;529813;27;1083;-45
2023/10/15 01:19:51;;;;;;;11.52;3.88;;;;;;;12.00;56.42;93222.72;528347;28;813;-46
2023/10/15 01:20:09;;;;;;;15.52;3.80;;;;;;;12.00;56.58;93222.72;528109;27;1569;-45
2023/10/15 01:20:30;;;;;;;18.20;3.72;;;;;;;11.95;56.27;93215.34;528145;28;892;-45
2023/10/15 01:20:45;;;;;;;12.73;3.22;;;;;;;11.99;56.26;93221.25;529066;27;1211;-46
2023/10/15 01:21:01;;;;;;;5.32;2.83;;;;;;;11.99;56.22;93220.53;528777;27;1722;-46
2023/10/15 01:21:16;;;;;;;3.67;2.33;;;;;;;11.97;56.46;93220.34;529440;27;1164;-46
2023/10/15 01:21:32;;;;;;;5.90;2.65;;;;;;;11.98;56.03;93227.34;530159;27;811;-46
2023/10/15 01:21:57;;;;;;;5.10;2.90;;;;;;;12.00;55.91;93227.50;530489;27;813;-45
2023/10/15 01:22:17;;;;;;;4.20;2.58;;;;;;;12.01;56.30;93223.44;528224;28;1005;-49
2023/10/15 01:22:33;;;;;;;3.17;2.50;;;;;;;12.00;55.88;93231.00;529315;27;958;-45
2023/10/15 01:22:50;;;;;;;3.70;3.07;;;;;;;12.00;56.26;93233.03;528249;28;832;-46
2023/10/15 01:23:05;;;;;;;9.18;3.08;;;;;;;11.99;56.27;93220.53;528258;28;917;-47
2023/10/15 01:23:43;;;;;;;13.40;3.13;;;;;;;11.98;56.04;93230.09;528288;28;877;-47
2023/10/15 01:24:04;;;;;;;7.97;3.45;;;;;;;11.92;56.27;93227.56;529147;27;1169;-45
2023/10/15 01:24:22;;;;;;;13.00;3.23;;;;;;;11.90;56.27;93224.63;529722;27;1109;-44
2023/10/15 01:24:38;;;;;;;5.32;2.88;;;;;;;11.90;56.59;93221.13;530000;27;848;-45
2023/10/15 01:24:54;;;;;;;3.53;2.80;;;;;;;11.89;56.32;93223.16;528489;28;905;-45
2023/10/15 01:25:24;;;;;;;3.90;2.60;;;;;;;11.86;56.54;93224.28;528271;28;829;-46
2023/10/15 01:25:48;;;;;;;4.85;2.90;;;;;;;11.86;56.19;93220.78;528390;28;1751;-47
2023/10/15 01:26:17;;;;;;;4.45;2.90;;;;;;;11.85;56.36;93222.06;527986;28;1309;-44
2023/10/15 01:26:39;;;;;;;4.32;2.63;;;;;;;11.73;56.51;93218.28;529698;27;959;-45
2023/10/15 01:27:27;;;;;;;3.97;2.95;;;;;;;11.73;56.94;93221.78;528557;28;1273;-46
2023/10/15 01:27:45;;;;;;;7.53;3.05;;;;;;;11.67;56.78;93207.44;530323;27;943;-43
2023/10/15 01:28:00;;;;;;;8.25;3.38;;;;;;;11.76;56.64;93222.69;530385;27;957;-45
2023/10/15 01:28:16;;;;;;;5.17;3.00;;;;;;;11.77;56.76;93222.13;530324;27;901;-44
2023/10/15 01:28:37;;;;;;;4.72;2.78;;;;;;;11.78;56.81;93223.59;530063;27;1049;-44
2023/10/15 01:28:52;;;;;;;4.32;3.30;;;;;;;11.77;56.71;93222.13;530387;27;852;-44
2023/10/15 01:29:08;;;;;;;3.67;3.00;;;;;;;11.75;56.82;93219.19;530377;27;967;-44
2023/10/15 01:29:23;;;;;;;3.30;2.80;;;;;;;11.74;56.85;93217.72;530396;27;876;-46
2023/10/15 01:29:40;;;;;;;3.90;3.20;;;;;;;11.77;57.07;93221.38;530282;27;822;-46
2023/10/15 01:29:58;;;;;;;5.72;3.42;;;;;;;11.77;56.91;93222.13;530414;27;902;-44